Kake Airport
PAFE : rendu visible

Aérodrome :











RETROUVEZ-NOUS SUR...

 
LOGIN :

S'inscrire | Disclaimer

   EN    FR    IT 

 









Légende :    VFR   VFR Marginal   IFR   IFR Intensif   IFR Très Intensif
Visi : 
Plafond : 
>= 8 km
>= 3000ft
5 à 8 km
1000 à 3000 ft
1500m à 5 km
500 à 1000 ft
800 à 1500m
200 à 500 ft
< 800m
< 200 ft
Symboles :   Orages  Brouillard  Fortes neiges  Fortes précipitations  Vent > 20 kt






- Altitude de l'aérodrome : 172 ft
- Code IATA : AFE


PAFE - Kake

DERNIER METAR :
  • 281756Z AUTO 03009KT 3SM -SN BR OVC031 M01/M03 A2950 RMK AO2 SLP000 P0000 60002 T10061028 11006 21017 56003 FZRANO $

METARs EXPIRÉS :
  • 281725Z AUTO 03008KT 2SM -SN BR OVC031 M01/M03 A2950 RMK AO2 P0000 FZRANO $
  • 281656Z AUTO 04009G14KT 1 3/4SM -SN BR OVC031 M01/M03 A2950 RMK AO2 SLP000 P0000 T10111028 FZRANO $
  • 281647Z AUTO 03008KT 2SM -SN BR OVC031 M01/M03 A2950 RMK AO2 VIS 1 1/2V3 P0000 FZRANO $
  • 281608Z AUTO 03006KT 2 1/2SM -SN BR BKN027 OVC034 M01/M03 A2950 RMK AO2 VIS 1 3/4V3 P0000 FZRANO $

TAF N/A



MET'MAP, la Météo Aéronautique d'un coup d'oeil ! - Copyright ORBIFLY Décembre 2007 - Disclaimer

ORBIFLY MET'MAP TEAM :

Programmation & Développement : Alexandra Zaïnal
Sur une idée originale de : Baudouin d'Aumeries
Assistance à la programmation : Marc-Olivier Méhu
Soutien technique & logistique : Manuel Goepfert

Contact : metmap@orbifly.com




SOURCES & CREDITS :

   NOAA       Earth
Advisory